sensor_id;sensor_type;location;lat;lon;timestamp;pressure;altitude;pressure_sealevel;temperature;humidity
60228;BME280;46091;46.512;6.626;2023-04-21T00:00:11;96353.91;;;13.08;56.51
60228;BME280;46091;46.512;6.626;2023-04-21T00:02:14;96344.09;;;13.08;56.33
60228;BME280;46091;46.512;6.626;2023-04-21T00:04:17;96344.09;;;13.08;56.37
60228;BME280;46091;46.512;6.626;2023-04-21T00:06:21;96341.47;;;13.08;56.40
60228;BME280;46091;46.512;6.626;2023-04-21T00:08:24;96337.53;;;13.11;56.05
60228;BME280;46091;46.512;6.626;2023-04-21T00:10:28;96330.63;;;13.10;56.25
60228;BME280;46091;46.512;6.626;2023-04-21T00:12:32;96328.41;;;13.07;56.46
60228;BME280;46091;46.512;6.626;2023-04-21T00:14:35;96338.44;;;13.05;56.49
60228;BME280;46091;46.512;6.626;2023-04-21T00:16:38;96338.22;;;13.06;56.50
60228;BME280;46091;46.512;6.626;2023-04-21T00:18:41;96336.16;;;13.08;56.13
60228;BME280;46091;46.512;6.626;2023-04-21T00:20:44;96340.19;;;13.11;56.26
60228;BME280;46091;46.512;6.626;2023-04-21T00:22:47;96338.13;;;13.13;56.17
60228;BME280;46091;46.512;6.626;2023-04-21T00:24:50;96344.25;;;13.13;56.02
60228;BME280;46091;46.512;6.626;2023-04-21T00:26:53;96343.25;;;13.15;55.99
60228;BME280;46091;46.512;6.626;2023-04-21T00:28:57;96338.75;;;13.15;56.10
60228;BME280;46091;46.512;6.626;2023-04-21T00:31:00;96338.75;;;13.15;56.27
60228;BME280;46091;46.512;6.626;2023-04-21T00:33:03;96335.28;;;13.15;56.20
60228;BME280;46091;46.512;6.626;2023-04-21T00:35:06;96332.63;;;13.15;56.22
60228;BME280;46091;46.512;6.626;2023-04-21T00:37:09;96327.50;;;13.13;56.15
60228;BME280;46091;46.512;6.626;2023-04-21T00:39:12;96331.81;;;13.14;56.25
60228;BME280;46091;46.512;6.626;2023-04-21T00:41:15;96332.63;;;13.15;55.73
60228;BME280;46091;46.512;6.626;2023-04-21T00:43:18;96328.94;;;13.16;56.10
60228;BME280;46091;46.512;6.626;2023-04-21T00:45:22;96327.31;;;13.15;56.08
60228;BME280;46091;46.512;6.626;2023-04-21T00:47:25;96326.50;;;13.14;55.82
60228;BME280;46091;46.512;6.626;2023-04-21T00:49:28;96323.25;;;13.12;55.80
60228;BME280;46091;46.512;6.626;2023-04-21T00:51:32;96320.00;;;13.10;56.17
60228;BME280;46091;46.512;6.626;2023-04-21T00:53:35;96319.19;;;13.09;56.32
60228;BME280;46091;46.512;6.626;2023-04-21T00:55:38;96321.03;;;13.09;56.27
60228;BME280;46091;46.512;6.626;2023-04-21T00:57:42;96322.06;;;13.08;56.19
60228;BME280;46091;46.512;6.626;2023-04-21T00:59:47;96317.78;;;13.07;56.06
60228;BME280;46091;46.512;6.626;2023-04-21T01:01:51;96314.56;;;13.05;56.03
60228;BME280;46091;46.512;6.626;2023-04-21T01:03:56;96320.91;;;13.04;56.27
60228;BME280;46091;46.512;6.626;2023-04-21T01:06:00;96308.66;;;13.03;56.20
60228;BME280;46091;46.512;6.626;2023-04-21T01:08:05;96312.13;;;13.03;56.24
60228;BME280;46091;46.512;6.626;2023-04-21T01:10:08;96312.53;;;13.00;56.39
60228;BME280;46091;46.512;6.626;2023-04-21T01:12:11;96314.97;;;13.02;56.07
60228;BME280;46091;46.512;6.626;2023-04-21T01:14:14;96306.81;;;13.03;56.21
60228;BME280;46091;46.512;6.626;2023-04-21T01:16:17;96315.59;;;13.04;56.56
60228;BME280;46091;46.512;6.626;2023-04-21T01:18:22;96317.44;;;13.03;56.40
60228;BME280;46091;46.512;6.626;2023-04-21T01:20:25;96313.16;;;13.02;56.13
60228;BME280;46091;46.512;6.626;2023-04-21T01:22:31;96312.13;;;13.03;56.25
60228;BME280;46091;46.512;6.626;2023-04-21T01:24:36;96309.47;;;13.03;56.65
60228;BME280;46091;46.512;6.626;2023-04-21T01:26:39;96308.44;;;13.04;56.43
60228;BME280;46091;46.512;6.626;2023-04-21T01:28:41;96309.91;;;13.00;56.50
60228;BME280;46091;46.512;6.626;2023-04-21T01:30:44;96298.47;;;13.00;56.71
60228;BME280;46091;46.512;6.626;2023-04-21T01:32:47;96317.25;;;12.98;56.60
60228;BME280;46091;46.512;6.626;2023-04-21T01:34:51;96310.13;;;12.99;56.63
60228;BME280;46091;46.512;6.626;2023-04-21T01:36:54;96304.59;;;13.00;56.16
60228;BME280;46091;46.512;6.626;2023-04-21T01:38:58;96309.09;;;13.00;56.58
60228;BME280;46091;46.512;6.626;2023-04-21T01:41:01;96310.69;;;13.01;56.25
60228;BME280;46091;46.512;6.626;2023-04-21T01:43:04;96313.75;;;13.04;56.30
60228;BME280;46091;46.512;6.626;2023-04-21T01:45:08;96314.78;;;13.03;56.68
60228;BME280;46091;46.512;6.626;2023-04-21T01:47:12;96310.50;;;13.02;56.47
60228;BME280;46091;46.512;6.626;2023-04-21T01:49:15;96314.97;;;13.02;56.66
60228;BME280;46091;46.512;6.626;2023-04-21T01:51:18;96311.50;;;13.01;56.59
60228;BME280;46091;46.512;6.626;2023-04-21T01:53:21;96316.63;;;13.03;56.65
60228;BME280;46091;46.512;6.626;2023-04-21T01:55:25;96306.00;;;13.03;56.64
60228;BME280;46091;46.512;6.626;2023-04-21T01:57:28;96310.94;;;12.99;56.56
60228;BME280;46091;46.512;6.626;2023-04-21T01:59:31;96308.72;;;12.96;56.46
60228;BME280;46091;46.512;6.626;2023-04-21T02:01:33;96308.72;;;12.96;56.75
60228;BME280;46091;46.512;6.626;2023-04-21T02:03:37;96303.06;;;12.93;56.64
60228;BME280;46091;46.512;6.626;2023-04-21T02:05:40;96308.78;;;12.90;56.33
60228;BME280;46091;46.512;6.626;2023-04-21T02:07:42;96301.03;;;12.88;56.42
60228;BME280;46091;46.512;6.626;2023-04-21T02:09:45;96303.09;;;12.86;56.49
60228;BME280;46091;46.512;6.626;2023-04-21T02:11:49;96310.41;;;12.91;56.46
60228;BME280;46091;46.512;6.626;2023-04-21T02:13:52;96302.25;;;12.92;56.71
60228;BME280;46091;46.512;6.626;2023-04-21T02:15:55;96299.78;;;12.91;56.42
60228;BME280;46091;46.512;6.626;2023-04-21T02:18:13;96301.84;;;12.89;56.67
60228;BME280;46091;46.512;6.626;2023-04-21T02:20:17;96304.09;;;12.92;56.42
60228;BME280;46091;46.512;6.626;2023-04-21T02:22:20;96300.81;;;12.90;56.65
60228;BME280;46091;46.512;6.626;2023-04-21T02:24:23;96295.50;;;12.90;56.55
60228;BME280;46091;46.512;6.626;2023-04-21T02:26:26;96291.47;;;12.87;56.35
60228;BME280;46091;46.512;6.626;2023-04-21T02:28:30;96301.84;;;12.89;56.39
60228;BME280;46091;46.512;6.626;2023-04-21T02:30:33;96296.94;;;12.92;56.61
60228;BME280;46091;46.512;6.626;2023-04-21T02:32:36;96297.13;;;12.91;56.48
60228;BME280;46091;46.512;6.626;2023-04-21T02:34:39;96296.53;;;12.89;56.85
60228;BME280;46091;46.512;6.626;2023-04-21T02:36:43;96293.88;;;12.89;56.69
60228;BME280;46091;46.512;6.626;2023-04-21T02:38:46;96298.16;;;12.90;56.76
60228;BME280;46091;46.512;6.626;2023-04-21T02:40:49;96305.09;;;12.91;56.73
60228;BME280;46091;46.512;6.626;2023-04-21T02:42:52;96305.09;;;12.91;56.69
60228;BME280;46091;46.512;6.626;2023-04-21T02:44:56;96306.13;;;12.90;56.63
60228;BME280;46091;46.512;6.626;2023-04-21T02:46:58;96307.97;;;12.89;56.54
60228;BME280;46091;46.512;6.626;2023-04-21T02:49:01;96303.47;;;12.90;56.45
60228;BME280;46091;46.512;6.626;2023-04-21T02:51:04;96311.44;;;12.90;56.56
60228;BME280;46091;46.512;6.626;2023-04-21T02:53:12;96313.03;;;12.91;56.64
60228;BME280;46091;46.512;6.626;2023-04-21T02:55:15;96312.47;;;12.89;56.62
60228;BME280;46091;46.512;6.626;2023-04-21T02:57:18;96306.56;;;12.87;56.33
60228;BME280;46091;46.512;6.626;2023-04-21T02:59:20;96309.44;;;12.85;56.56
60228;BME280;46091;46.512;6.626;2023-04-21T03:01:25;96313.56;;;12.81;56.57
60228;BME280;46091;46.512;6.626;2023-04-21T03:03:28;96318.25;;;12.79;56.67
60228;BME280;46091;46.512;6.626;2023-04-21T03:05:31;96309.31;;;12.80;56.56
60228;BME280;46091;46.512;6.626;2023-04-21T03:07:33;96314.38;;;12.81;56.53
60228;BME280;46091;46.512;6.626;2023-04-21T03:09:37;96320.72;;;12.80;56.61
60228;BME280;46091;46.512;6.626;2023-04-21T03:11:39;96323.56;;;12.79;56.51
60228;BME280;46091;46.512;6.626;2023-04-21T03:13:42;96323.56;;;12.79;56.69
60228;BME280;46091;46.512;6.626;2023-04-21T03:15:45;96316.22;;;12.81;56.71
60228;BME280;46091;46.512;6.626;2023-04-21T03:17:49;96314.97;;;12.83;56.71
60228;BME280;46091;46.512;6.626;2023-04-21T03:19:52;96317.41;;;12.85;56.58
60228;BME280;46091;46.512;6.626;2023-04-21T03:21:55;96314.31;;;12.88;56.40
60228;BME280;46091;46.512;6.626;2023-04-21T03:23:58;96323.88;;;12.89;56.66
60228;BME280;46091;46.512;6.626;2023-04-21T03:26:05;96326.97;;;12.86;56.83
60228;BME280;46091;46.512;6.626;2023-04-21T03:28:08;96336.56;;;12.87;56.45
60228;BME280;46091;46.512;6.626;2023-04-21T03:30:11;96336.19;;;12.83;56.61
60228;BME280;46091;46.512;6.626;2023-04-21T03:32:14;96324.38;;;12.79;56.90
60228;BME280;46091;46.512;6.626;2023-04-21T03:34:19;96330.13;;;12.76;56.72
60228;BME280;46091;46.512;6.626;2023-04-21T03:36:21;96319.50;;;12.76;56.63
60228;BME280;46091;46.512;6.626;2023-04-21T03:38:24;96325.84;;;12.75;56.81
60228;BME280;46091;46.512;6.626;2023-04-21T03:40:27;96318.94;;;12.74;56.89
60228;BME280;46091;46.512;6.626;2023-04-21T03:42:30;96320.41;;;12.70;56.74
60228;BME280;46091;46.512;6.626;2023-04-21T03:44:33;96320.41;;;12.70;56.84
60228;BME280;46091;46.512;6.626;2023-04-21T03:46:36;96322.25;;;12.70;56.69
60228;BME280;46091;46.512;6.626;2023-04-21T03:48:39;96315.69;;;12.72;56.85
60228;BME280;46091;46.512;6.626;2023-04-21T03:50:43;96319.97;;;12.73;56.75
60228;BME280;46091;46.512;6.626;2023-04-21T03:52:46;96319.97;;;12.73;56.62
60228;BME280;46091;46.512;6.626;2023-04-21T03:54:49;96316.72;;;12.71;56.40
60228;BME280;46091;46.512;6.626;2023-04-21T03:56:52;96310.22;;;12.67;56.93
60228;BME280;46091;46.512;6.626;2023-04-21T03:58:55;96310.44;;;12.66;56.75
60228;BME280;46091;46.512;6.626;2023-04-21T04:00:57;96305.34;;;12.64;56.62
60228;BME280;46091;46.512;6.626;2023-04-21T04:03:00;96301.28;;;12.62;56.77
60228;BME280;46091;46.512;6.626;2023-04-21T04:05:04;96296.00;;;12.62;56.80
60228;BME280;46091;46.512;6.626;2023-04-21T04:07:09;96293.56;;;12.60;56.85
60228;BME280;46091;46.512;6.626;2023-04-21T04:09:11;96295.63;;;12.58;56.85
60228;BME280;46091;46.512;6.626;2023-04-21T04:11:14;96301.75;;;12.59;56.98
60228;BME280;46091;46.512;6.626;2023-04-21T04:13:17;96309.69;;;12.59;57.15
60228;BME280;46091;46.512;6.626;2023-04-21T04:15:21;96312.72;;;12.62;57.13
60228;BME280;46091;46.512;6.626;2023-04-21T04:17:24;96319.63;;;12.63;56.81
60228;BME280;46091;46.512;6.626;2023-04-21T04:19:30;96313.53;;;12.63;56.73
60228;BME280;46091;46.512;6.626;2023-04-21T04:21:33;96331.88;;;12.64;56.88
60228;BME280;46091;46.512;6.626;2023-04-21T04:23:37;96336.72;;;12.67;56.90
60228;BME280;46091;46.512;6.626;2023-04-21T04:25:40;96335.09;;;12.66;56.82
60228;BME280;46091;46.512;6.626;2023-04-21T04:27:43;96337.75;;;12.66;57.00
60228;BME280;46091;46.512;6.626;2023-04-21T04:29:47;96331.00;;;12.70;57.02
60228;BME280;46091;46.512;6.626;2023-04-21T04:31:50;96331.81;;;12.71;57.03
60228;BME280;46091;46.512;6.626;2023-04-21T04:33:53;96328.13;;;12.72;56.83
60228;BME280;46091;46.512;6.626;2023-04-21T04:35:56;96325.72;;;12.70;56.85
60228;BME280;46091;46.512;6.626;2023-04-21T04:38:00;96329.97;;;12.71;56.82
60228;BME280;46091;46.512;6.626;2023-04-21T04:40:07;96328.34;;;12.70;57.00
60228;BME280;46091;46.512;6.626;2023-04-21T04:42:12;96330.56;;;12.73;57.02
60228;BME280;46091;46.512;6.626;2023-04-21T04:44:15;96336.47;;;12.75;56.96
60228;BME280;46091;46.512;6.626;2023-04-21T04:46:19;96340.28;;;12.79;56.84
60228;BME280;46091;46.512;6.626;2023-04-21T04:48:22;96337.63;;;12.79;57.14
60228;BME280;46091;46.512;6.626;2023-04-21T04:50:26;96336.81;;;12.79;56.99
60228;BME280;46091;46.512;6.626;2023-04-21T04:52:28;96335.44;;;12.76;56.93
60228;BME280;46091;46.512;6.626;2023-04-21T04:54:31;96337.28;;;12.76;57.23
60228;BME280;46091;46.512;6.626;2023-04-21T04:56:36;96331.75;;;12.77;57.08
60228;BME280;46091;46.512;6.626;2023-04-21T04:58:39;96324.59;;;12.78;57.17
60228;BME280;46091;46.512;6.626;2023-04-21T05:00:41;96322.75;;;12.78;56.94
60228;BME280;46091;46.512;6.626;2023-04-21T05:02:44;96318.06;;;12.80;57.01
60228;BME280;46091;46.512;6.626;2023-04-21T05:04:47;96314.78;;;12.78;57.15
60228;BME280;46091;46.512;6.626;2023-04-21T05:06:50;96331.75;;;12.77;56.86
60228;BME280;46091;46.512;6.626;2023-04-21T05:08:53;96338.25;;;12.81;56.83
60228;BME280;46091;46.512;6.626;2023-04-21T05:10:56;96331.91;;;12.82;57.13
60228;BME280;46091;46.512;6.626;2023-04-21T05:13:00;96334.34;;;12.84;56.58
60228;BME280;46091;46.512;6.626;2023-04-21T05:15:04;96329.84;;;12.85;56.58
60228;BME280;46091;46.512;6.626;2023-04-21T05:17:07;96327.19;;;12.85;56.59
60228;BME280;46091;46.512;6.626;2023-04-21T05:19:10;96333.09;;;12.87;56.47
60228;BME280;46091;46.512;6.626;2023-04-21T05:21:12;96333.69;;;12.89;56.82
60228;BME280;46091;46.512;6.626;2023-04-21T05:23:15;96326.31;;;12.91;56.50
60228;BME280;46091;46.512;6.626;2023-04-21T05:25:18;96322.44;;;12.93;56.26
60228;BME280;46091;46.512;6.626;2023-04-21T05:27:21;96318.97;;;12.93;56.22
60228;BME280;46091;46.512;6.626;2023-04-21T05:29:25;96324.28;;;12.93;56.68
60228;BME280;46091;46.512;6.626;2023-04-21T05:31:28;96322.44;;;12.93;56.59
60228;BME280;46091;46.512;6.626;2023-04-21T05:33:30;96329.59;;;12.93;56.45
60228;BME280;46091;46.512;6.626;2023-04-21T05:35:33;96325.91;;;12.94;56.39
60228;BME280;46091;46.512;6.626;2023-04-21T05:37:38;96324.50;;;12.91;56.32
60228;BME280;46091;46.512;6.626;2023-04-21T05:39:41;96320.63;;;12.87;56.17
60228;BME280;46091;46.512;6.626;2023-04-21T05:41:44;96327.19;;;12.85;56.22
60228;BME280;46091;46.512;6.626;2023-04-21T05:43:47;96327.19;;;12.85;56.52
60228;BME280;46091;46.512;6.626;2023-04-21T05:45:51;96330.88;;;12.83;56.51
60228;BME280;46091;46.512;6.626;2023-04-21T05:47:54;96338.84;;;12.83;56.67
60228;BME280;46091;46.512;6.626;2023-04-21T05:49:57;96329.69;;;12.79;56.64
60228;BME280;46091;46.512;6.626;2023-04-21T05:52:00;96334.41;;;12.77;56.41
60228;BME280;46091;46.512;6.626;2023-04-21T05:54:02;96339.69;;;12.77;56.67
60228;BME280;46091;46.512;6.626;2023-04-21T05:56:07;96338.66;;;12.78;56.57
60228;BME280;46091;46.512;6.626;2023-04-21T05:58:10;96335.81;;;12.80;56.48
60228;BME280;46091;46.512;6.626;2023-04-21T06:00:14;96335.59;;;12.81;56.39
60228;BME280;46091;46.512;6.626;2023-04-21T06:02:19;96325.41;;;12.78;56.76
60228;BME280;46091;46.512;6.626;2023-04-21T06:04:22;96324.00;;;12.76;56.42
60228;BME280;46091;46.512;6.626;2023-04-21T06:06:26;96325.22;;;12.80;56.74
60228;BME280;46091;46.512;6.626;2023-04-21T06:08:29;96317.03;;;12.81;56.64
60228;BME280;46091;46.512;6.626;2023-04-21T06:10:32;96318.44;;;12.84;56.41
60228;BME280;46091;46.512;6.626;2023-04-21T06:12:34;96337.53;;;12.93;56.53
60228;BME280;46091;46.512;6.626;2023-04-21T06:14:37;96345.28;;;12.94;56.21
60228;BME280;46091;46.512;6.626;2023-04-21T06:16:40;96343.44;;;12.95;56.46
60228;BME280;46091;46.512;6.626;2023-04-21T06:18:44;96342.84;;;12.93;56.51
60228;BME280;46091;46.512;6.626;2023-04-21T06:20:50;96347.13;;;12.94;56.52
60228;BME280;46091;46.512;6.626;2023-04-21T06:22:53;96348.75;;;12.95;56.45
60228;BME280;46091;46.512;6.626;2023-04-21T06:24:56;96349.91;;;12.99;56.44
60228;BME280;46091;46.512;6.626;2023-04-21T06:27:01;96348.88;;;13.00;56.20
60228;BME280;46091;46.512;6.626;2023-04-21T06:29:03;96350.31;;;13.02;56.41
60228;BME280;46091;46.512;6.626;2023-04-21T06:31:06;96352.75;;;13.04;56.11
60228;BME280;46091;46.512;6.626;2023-04-21T06:33:10;96340.69;;;13.01;56.24
60228;BME280;46091;46.512;6.626;2023-04-21T06:35:14;96320.91;;;13.04;56.05
60228;BME280;46091;46.512;6.626;2023-04-21T06:37:17;96311.09;;;13.04;56.13
60228;BME280;46091;46.512;6.626;2023-04-21T06:39:20;96305.41;;;13.01;56.25
60228;BME280;46091;46.512;6.626;2023-04-21T06:41:23;96296.25;;;12.97;56.05
60228;BME280;46091;46.512;6.626;2023-04-21T06:43:26;96290.50;;;13.00;56.23
60228;BME280;46091;46.512;6.626;2023-04-21T06:45:29;96296.41;;;13.02;56.03
60228;BME280;46091;46.512;6.626;2023-04-21T06:47:32;96286.41;;;13.04;56.12
60228;BME280;46091;46.512;6.626;2023-04-21T06:49:35;96296.47;;;13.13;55.96
60228;BME280;46091;46.512;6.626;2023-04-21T06:51:39;96296.44;;;13.20;56.05
60228;BME280;46091;46.512;6.626;2023-04-21T06:53:42;96310.47;;;13.27;55.82
60228;BME280;46091;46.512;6.626;2023-04-21T06:55:45;96318.22;;;13.29;55.42
60228;BME280;46091;46.512;6.626;2023-04-21T06:57:48;96317.63;;;13.27;55.49
60228;BME280;46091;46.512;6.626;2023-04-21T06:59:51;96317.84;;;13.25;55.94
60228;BME280;46091;46.512;6.626;2023-04-21T07:01:53;96316.59;;;13.28;55.79
60228;BME280;46091;46.512;6.626;2023-04-21T07:03:56;96318.13;;;13.35;55.42
60228;BME280;46091;46.512;6.626;2023-04-21T07:06:00;96331.91;;;13.44;55.46
60228;BME280;46091;46.512;6.626;2023-04-21T07:08:04;96330.59;;;13.53;55.58
60228;BME280;46091;46.512;6.626;2023-04-21T07:10:08;96328.75;;;13.54;55.36
60228;BME280;46091;46.512;6.626;2023-04-21T07:12:11;96315.91;;;13.51;55.48
60228;BME280;46091;46.512;6.626;2023-04-21T07:14:14;96318.56;;;13.51;55.29
60228;BME280;46091;46.512;6.626;2023-04-21T07:16:17;96316.63;;;13.58;55.45
60228;BME280;46091;46.512;6.626;2023-04-21T07:18:19;96318.94;;;13.54;55.21
60228;BME280;46091;46.512;6.626;2023-04-21T07:20:23;96314.88;;;13.52;55.24
60228;BME280;46091;46.512;6.626;2023-04-21T07:22:25;96321.00;;;13.52;55.37
60228;BME280;46091;46.512;6.626;2023-04-21T07:24:30;96320.31;;;13.57;55.28
60228;BME280;46091;46.512;6.626;2023-04-21T07:26:34;96323.13;;;13.62;55.07
60228;BME280;46091;46.512;6.626;2023-04-21T07:28:38;96315.66;;;13.71;55.28
60228;BME280;46091;46.512;6.626;2023-04-21T07:30:41;96317.63;;;13.75;54.86
60228;BME280;46091;46.512;6.626;2023-04-21T07:32:44;96320.06;;;13.77;54.82
60228;BME280;46091;46.512;6.626;2023-04-21T07:34:47;96304.47;;;13.80;54.95
60228;BME280;46091;46.512;6.626;2023-04-21T07:36:51;96313.06;;;13.82;54.88
60228;BME280;46091;46.512;6.626;2023-04-21T07:38:54;96312.84;;;13.84;54.86
60228;BME280;46091;46.512;6.626;2023-04-21T07:40:58;96315.72;;;13.82;54.85
60228;BME280;46091;46.512;6.626;2023-04-21T07:43:01;96316.97;;;13.80;54.54
60228;BME280;46091;46.512;6.626;2023-04-21T07:45:05;96316.31;;;13.84;54.65
60228;BME280;46091;46.512;6.626;2023-04-21T07:47:08;96308.09;;;13.86;54.58
60228;BME280;46091;46.512;6.626;2023-04-21T07:49:11;96317.91;;;13.85;54.74
60228;BME280;46091;46.512;6.626;2023-04-21T07:51:15;96323.22;;;13.85;54.44
60228;BME280;46091;46.512;6.626;2023-04-21T07:53:18;96324.50;;;13.83;54.67
60228;BME280;46091;46.512;6.626;2023-04-21T07:55:21;96327.97;;;13.83;54.39
60228;BME280;46091;46.512;6.626;2023-04-21T07:57:25;96331.31;;;13.90;54.59
60228;BME280;46091;46.512;6.626;2023-04-21T07:59:28;96330.91;;;13.93;54.28
60228;BME280;46091;46.512;6.626;2023-04-21T08:01:31;96326.41;;;13.94;54.50
60228;BME280;46091;46.512;6.626;2023-04-21T08:03:34;96323.50;;;13.95;54.11
60228;BME280;46091;46.512;6.626;2023-04-21T08:05:38;96312.88;;;13.95;54.18
60228;BME280;46091;46.512;6.626;2023-04-21T08:07:42;96323.28;;;13.97;54.38
60228;BME280;46091;46.512;6.626;2023-04-21T08:09:45;96321.78;;;14.01;54.12
60228;BME280;46091;46.512;6.626;2023-04-21T08:11:48;96320.75;;;14.02;54.17
60228;BME280;46091;46.512;6.626;2023-04-21T08:13:52;96326.28;;;14.01;54.18
60228;BME280;46091;46.512;6.626;2023-04-21T08:15:55;96322.81;;;14.00;53.85
60228;BME280;46091;46.512;6.626;2023-04-21T08:17:58;96327.31;;;13.99;53.82
60228;BME280;46091;46.512;6.626;2023-04-21T08:20:01;96325.47;;;14.00;53.89
60228;BME280;46091;46.512;6.626;2023-04-21T08:22:04;96324.22;;;14.03;53.87
60228;BME280;46091;46.512;6.626;2023-04-21T08:24:07;96330.72;;;14.07;54.00
60228;BME280;46091;46.512;6.626;2023-04-21T08:26:10;96321.69;;;14.08;53.69
60228;BME280;46091;46.512;6.626;2023-04-21T08:28:13;96335.91;;;14.13;53.76
60228;BME280;46091;46.512;6.626;2023-04-21T08:30:19;96339.16;;;14.15;53.63
60228;BME280;46091;46.512;6.626;2023-04-21T08:32:22;96336.88;;;14.19;53.84
60228;BME280;46091;46.512;6.626;2023-04-21T08:34:27;96330.53;;;14.20;53.71
60228;BME280;46091;46.512;6.626;2023-04-21T08:36:30;96327.72;;;14.15;53.50
60228;BME280;46091;46.512;6.626;2023-04-21T08:38:33;96325.06;;;14.15;53.46
60228;BME280;46091;46.512;6.626;2023-04-21T08:40:37;96324.94;;;14.10;53.73
60228;BME280;46091;46.512;6.626;2023-04-21T08:42:41;96337.06;;;14.06;53.73
60228;BME280;46091;46.512;6.626;2023-04-21T08:44:44;96343.41;;;14.05;53.67
60228;BME280;46091;46.512;6.626;2023-04-21T08:46:49;96351.41;;;14.05;53.42
60228;BME280;46091;46.512;6.626;2023-04-21T08:48:52;96352.41;;;14.04;53.41
60228;BME280;46091;46.512;6.626;2023-04-21T08:50:56;96360.19;;;14.05;53.61
60228;BME280;46091;46.512;6.626;2023-04-21T08:52:59;96358.44;;;14.11;53.61
60228;BME280;46091;46.512;6.626;2023-04-21T08:55:04;96365.97;;;14.14;53.58
60228;BME280;46091;46.512;6.626;2023-04-21T08:57:08;96360.31;;;14.10;53.30
60228;BME280;46091;46.512;6.626;2023-04-21T08:59:16;96369.53;;;14.08;53.41
60228;BME280;46091;46.512;6.626;2023-04-21T09:01:19;96363.66;;;14.06;53.50
60228;BME280;46091;46.512;6.626;2023-04-21T09:03:25;96359.78;;;14.02;53.54
60228;BME280;46091;46.512;6.626;2023-04-21T09:05:30;96376.56;;;14.02;53.62
60228;BME280;46091;46.512;6.626;2023-04-21T09:07:35;96376.19;;;13.98;53.23
60228;BME280;46091;46.512;6.626;2023-04-21T09:09:52;96384.75;;;14.01;53.49
60228;BME280;46091;46.512;6.626;2023-04-21T09:11:56;96388.81;;;14.03;53.45
60228;BME280;46091;46.512;6.626;2023-04-21T09:13:59;96386.59;;;14.00;53.36
60228;BME280;46091;46.512;6.626;2023-04-21T09:16:04;96378.50;;;13.95;53.34
60228;BME280;46091;46.512;6.626;2023-04-21T09:18:17;96375.84;;;13.95;53.22
60228;BME280;46091;46.512;6.626;2023-04-21T09:20:23;96379.91;;;13.97;53.46
60228;BME280;46091;46.512;6.626;2023-04-21T09:22:26;96379.91;;;13.97;53.17
60228;BME280;46091;46.512;6.626;2023-04-21T09:24:30;96389.94;;;13.95;53.08
60228;BME280;46091;46.512;6.626;2023-04-21T09:26:33;96397.34;;;13.93;53.35
60228;BME280;46091;46.512;6.626;2023-04-21T09:28:42;96399.59;;;13.90;53.41
60228;BME280;46091;46.512;6.626;2023-04-21T09:30:45;96408.03;;;13.87;53.31
60228;BME280;46091;46.512;6.626;2023-04-21T09:32:49;96412.38;;;13.81;53.35
60228;BME280;46091;46.512;6.626;2023-04-21T09:34:52;96426.09;;;13.78;53.33
60228;BME280;46091;46.512;6.626;2023-04-21T09:37:03;96427.00;;;13.72;53.12
60228;BME280;46091;46.512;6.626;2023-04-21T09:39:06;96440.13;;;13.67;53.25
60228;BME280;46091;46.512;6.626;2023-04-21T09:41:16;96432.16;;;13.67;53.28
60228;BME280;46091;46.512;6.626;2023-04-21T09:43:19;96433.78;;;13.68;53.45
60228;BME280;46091;46.512;6.626;2023-04-21T09:45:24;96433.19;;;13.66;53.19
60228;BME280;46091;46.512;6.626;2023-04-21T09:47:41;96437.91;;;13.64;53.27
60228;BME280;46091;46.512;6.626;2023-04-21T09:49:46;96443.69;;;13.61;53.62
60228;BME280;46091;46.512;6.626;2023-04-21T09:51:53;96429.78;;;13.59;53.31
60228;BME280;46091;46.512;6.626;2023-04-21T09:54:19;96403.69;;;13.56;53.72
60228;BME280;46091;46.512;6.626;2023-04-21T09:56:28;96392.25;;;13.55;53.60
60228;BME280;46091;46.512;6.626;2023-04-21T09:58:39;96387.75;;;13.56;53.42
60228;BME280;46091;46.512;6.626;2023-04-21T10:00:43;96368.56;;;13.54;53.72
60228;BME280;46091;46.512;6.626;2023-04-21T10:02:47;96359.56;;;13.55;53.58
60228;BME280;46091;46.512;6.626;2023-04-21T10:04:51;96363.63;;;13.57;53.57
60228;BME280;46091;46.512;6.626;2023-04-21T10:06:55;96366.44;;;13.62;53.85
60228;BME280;46091;46.512;6.626;2023-04-21T10:08:58;96362.97;;;13.62;53.86
60228;BME280;46091;46.512;6.626;2023-04-21T10:11:04;96351.66;;;13.66;53.79
60228;BME280;46091;46.512;6.626;2023-04-21T10:13:12;96351.13;;;13.76;54.17
60228;BME280;46091;46.512;6.626;2023-04-21T10:15:30;96360.56;;;13.90;54.11
60228;BME280;46091;46.512;6.626;2023-04-21T10:17:34;96361.88;;;13.99;53.70
60228;BME280;46091;46.512;6.626;2023-04-21T10:19:48;96372.44;;;14.06;53.75
60228;BME280;46091;46.512;6.626;2023-04-21T10:21:54;96382.25;;;14.06;53.86
60228;BME280;46091;46.512;6.626;2023-04-21T10:23:58;96390.88;;;14.01;54.22
60228;BME280;46091;46.512;6.626;2023-04-21T10:26:02;96400.94;;;13.99;54.38
60228;BME280;46091;46.512;6.626;2023-04-21T10:28:08;96411.44;;;13.94;54.21
60228;BME280;46091;46.512;6.626;2023-04-21T10:30:18;96402.94;;;13.85;54.24
60228;BME280;46091;46.512;6.626;2023-04-21T10:32:30;96398.91;;;13.83;54.66
60228;BME280;46091;46.512;6.626;2023-04-21T10:34:41;96389.31;;;13.82;54.72
60228;BME280;46091;46.512;6.626;2023-04-21T10:39:27;96388.63;;;13.86;54.57
60228;BME280;46091;46.512;6.626;2023-04-21T10:41:32;96378.44;;;13.83;54.54
60228;BME280;46091;46.512;6.626;2023-04-21T10:43:44;96377.84;;;13.81;54.61
60228;BME280;46091;46.512;6.626;2023-04-21T10:45:50;96382.16;;;13.82;54.71
60228;BME280;46091;46.512;6.626;2023-04-21T10:47:53;96376.81;;;13.82;54.97
60228;BME280;46091;46.512;6.626;2023-04-21T10:49:56;96374.38;;;13.81;54.86
60228;BME280;46091;46.512;6.626;2023-04-21T10:52:06;96368.25;;;13.80;54.99
60228;BME280;46091;46.512;6.626;2023-04-21T10:54:13;96370.72;;;13.82;54.91
60228;BME280;46091;46.512;6.626;2023-04-21T10:56:16;96367.00;;;13.83;55.13
60228;BME280;46091;46.512;6.626;2023-04-21T10:58:21;96376.38;;;13.85;55.30